Main page
METAR-TAF:

Airports :

London, England

London City Airport

latitude: 51-30N, longitude: 000-03E, elevation: 5 m

Current weather observation

The report was made 36 minutes ago, at 07:20 UTC
Wind 6 kt from the North/Northeast
Temperature 4°C
Humidity 81%
Pressure 991 hPa
Visibility 10 km or more

METAR: EGLC 140720Z AUTO 02006KT 9999 NCD 04/01 Q0991

Time: 07:56 (07:56 UTC)

Forecast

The report was made 2 hours and 55 minutes ago, at 05:01 UTC
Forecast valid from 14 at 06 UTC to 14 at 15 UTC
Wind 8 kt from the North/Northeast
Visibility: 7000 m
Few clouds at a height of 2200 ft
Broken clouds at a height of 3000 ft
light rain
Becoming
from 14 at 06 UTC to 14 at 09 UTC
Visibility 10 km or more
Temporary
from 14 at 12 UTC to 14 at 15 UTC
Wind 15 kt from the North/Northeast with gusts up to 25 kt

TAF: EGLC 140501Z 1406/1415 02008KT 7000 -RA FEW022 BKN030 BECMG 1406/1409 9999 NSW TEMPO 1412/1415 03015G25KT

METAR-TAF

Weather observations and forecasts of more than 4000 airports (METAR and TAF reports).

The available stations are represented by yellow and red dots on the map.

Hover mouse over dot to see the name of the station.

Then click to see weather observations and forecasts.

To change the map : click on the green buttons with a black cross to zoom in, on the green button with a dash to zoom out, or on the green arrows for adjacent maps.


METAR-TAF: